sensor_id;sensor_type;location;lat;lon;timestamp;P1;durP1;ratioP1;P2;durP2;ratioP2
41631;SDS011;37452;51.938;4.624;2023-07-13T00:01:39;6.30;;;1.45;;
41631;SDS011;37452;51.938;4.624;2023-07-13T00:04:04;10.40;;;2.35;;
41631;SDS011;37452;51.938;4.624;2023-07-13T00:06:30;10.57;;;1.95;;
41631;SDS011;37452;51.938;4.624;2023-07-13T00:08:58;11.25;;;1.90;;
41631;SDS011;37452;51.938;4.624;2023-07-13T00:11:24;10.13;;;1.83;;
41631;SDS011;37452;51.938;4.624;2023-07-13T00:13:49;10.77;;;2.45;;
41631;SDS011;37452;51.938;4.624;2023-07-13T00:16:14;8.15;;;1.98;;
41631;SDS011;37452;51.938;4.624;2023-07-13T00:18:40;11.00;;;1.75;;
41631;SDS011;37452;51.938;4.624;2023-07-13T00:21:06;10.23;;;1.85;;
41631;SDS011;37452;51.938;4.624;2023-07-13T00:23:35;10.57;;;1.95;;
41631;SDS011;37452;51.938;4.624;2023-07-13T00:26:03;14.88;;;2.30;;
41631;SDS011;37452;51.938;4.624;2023-07-13T00:28:29;8.43;;;1.85;;
41631;SDS011;37452;51.938;4.624;2023-07-13T00:30:55;10.93;;;2.83;;
41631;SDS011;37452;51.938;4.624;2023-07-13T00:33:20;10.02;;;2.13;;
41631;SDS011;37452;51.938;4.624;2023-07-13T00:35:47;13.13;;;2.05;;
41631;SDS011;37452;51.938;4.624;2023-07-13T00:38:13;7.30;;;1.85;;
41631;SDS011;37452;51.938;4.624;2023-07-13T00:40:39;12.93;;;2.13;;
41631;SDS011;37452;51.938;4.624;2023-07-13T00:43:09;9.23;;;1.65;;
41631;SDS011;37452;51.938;4.624;2023-07-13T00:48:10;10.80;;;1.75;;
41631;SDS011;37452;51.938;4.624;2023-07-13T00:50:37;12.23;;;2.28;;
41631;SDS011;37452;51.938;4.624;2023-07-13T00:53:04;10.18;;;1.95;;
41631;SDS011;37452;51.938;4.624;2023-07-13T00:55:29;14.45;;;2.25;;
41631;SDS011;37452;51.938;4.624;2023-07-13T00:57:55;11.77;;;1.65;;
41631;SDS011;37452;51.938;4.624;2023-07-13T01:00:21;13.85;;;2.45;;
41631;SDS011;37452;51.938;4.624;2023-07-13T01:02:48;15.40;;;2.30;;
41631;SDS011;37452;51.938;4.624;2023-07-13T01:05:19;11.52;;;1.70;;
41631;SDS011;37452;51.938;4.624;2023-07-13T01:07:45;12.60;;;1.77;;
41631;SDS011;37452;51.938;4.624;2023-07-13T01:10:13;11.40;;;2.10;;
41631;SDS011;37452;51.938;4.624;2023-07-13T01:12:39;11.07;;;1.98;;
41631;SDS011;37452;51.938;4.624;2023-07-13T01:15:05;9.02;;;2.00;;
41631;SDS011;37452;51.938;4.624;2023-07-13T01:17:51;11.55;;;2.25;;
41631;SDS011;37452;51.938;4.624;2023-07-13T01:20:17;8.25;;;1.92;;
41631;SDS011;37452;51.938;4.624;2023-07-13T01:22:42;4.70;;;1.40;;
41631;SDS011;37452;51.938;4.624;2023-07-13T01:25:08;8.13;;;1.70;;
41631;SDS011;37452;51.938;4.624;2023-07-13T01:27:33;11.23;;;1.70;;
41631;SDS011;37452;51.938;4.624;2023-07-13T01:29:59;11.93;;;2.05;;
41631;SDS011;37452;51.938;4.624;2023-07-13T01:32:28;9.65;;;1.75;;
41631;SDS011;37452;51.938;4.624;2023-07-13T01:34:56;7.57;;;1.38;;
41631;SDS011;37452;51.938;4.624;2023-07-13T01:37:22;17.50;;;2.08;;
41631;SDS011;37452;51.938;4.624;2023-07-13T01:39:48;10.85;;;1.90;;
41631;SDS011;37452;51.938;4.624;2023-07-13T01:42:14;14.38;;;2.10;;
41631;SDS011;37452;51.938;4.624;2023-07-13T01:44:39;9.75;;;1.60;;
41631;SDS011;37452;51.938;4.624;2023-07-13T01:47:05;9.35;;;1.60;;
41631;SDS011;37452;51.938;4.624;2023-07-13T01:49:30;10.93;;;1.30;;
41631;SDS011;37452;51.938;4.624;2023-07-13T01:51:56;10.27;;;1.83;;
41631;SDS011;37452;51.938;4.624;2023-07-13T01:54:21;12.85;;;1.67;;
41631;SDS011;37452;51.938;4.624;2023-07-13T01:56:46;3.67;;;1.15;;
41631;SDS011;37452;51.938;4.624;2023-07-13T01:59:12;2.83;;;0.85;;
41631;SDS011;37452;51.938;4.624;2023-07-13T02:01:37;5.80;;;1.73;;
41631;SDS011;37452;51.938;4.624;2023-07-13T02:04:03;7.43;;;1.08;;
41631;SDS011;37452;51.938;4.624;2023-07-13T02:06:28;3.97;;;0.77;;
41631;SDS011;37452;51.938;4.624;2023-07-13T02:08:54;2.50;;;0.60;;
41631;SDS011;37452;51.938;4.624;2023-07-13T02:11:20;4.70;;;0.77;;
41631;SDS011;37452;51.938;4.624;2023-07-13T02:13:45;5.40;;;1.05;;
41631;SDS011;37452;51.938;4.624;2023-07-13T02:16:11;3.10;;;0.70;;
41631;SDS011;37452;51.938;4.624;2023-07-13T02:18:36;5.47;;;1.30;;
41631;SDS011;37452;51.938;4.624;2023-07-13T02:21:02;3.80;;;0.60;;
41631;SDS011;37452;51.938;4.624;2023-07-13T02:23:28;4.35;;;0.90;;
41631;SDS011;37452;51.938;4.624;2023-07-13T02:25:54;4.93;;;1.40;;
41631;SDS011;37452;51.938;4.624;2023-07-13T02:28:21;12.38;;;1.52;;
41631;SDS011;37452;51.938;4.624;2023-07-13T02:30:46;4.95;;;1.00;;
41631;SDS011;37452;51.938;4.624;2023-07-13T02:33:11;6.75;;;1.00;;
41631;SDS011;37452;51.938;4.624;2023-07-13T02:35:37;6.53;;;1.20;;
41631;SDS011;37452;51.938;4.624;2023-07-13T02:38:02;8.48;;;1.65;;
41631;SDS011;37452;51.938;4.624;2023-07-13T02:40:28;7.13;;;1.33;;
41631;SDS011;37452;51.938;4.624;2023-07-13T02:42:53;10.02;;;1.77;;
41631;SDS011;37452;51.938;4.624;2023-07-13T02:45:19;7.53;;;1.65;;
41631;SDS011;37452;51.938;4.624;2023-07-13T02:47:44;6.72;;;1.65;;
41631;SDS011;37452;51.938;4.624;2023-07-13T02:50:09;7.40;;;1.92;;
41631;SDS011;37452;51.938;4.624;2023-07-13T02:52:35;10.57;;;1.83;;
41631;SDS011;37452;51.938;4.624;2023-07-13T02:55:00;11.90;;;1.75;;
41631;SDS011;37452;51.938;4.624;2023-07-13T02:57:26;9.25;;;1.42;;
41631;SDS011;37452;51.938;4.624;2023-07-13T02:59:53;7.47;;;1.60;;
41631;SDS011;37452;51.938;4.624;2023-07-13T03:02:18;6.30;;;1.50;;
41631;SDS011;37452;51.938;4.624;2023-07-13T03:04:44;9.30;;;2.05;;
41631;SDS011;37452;51.938;4.624;2023-07-13T03:07:10;12.60;;;2.55;;
41631;SDS011;37452;51.938;4.624;2023-07-13T03:09:35;10.05;;;2.00;;
41631;SDS011;37452;51.938;4.624;2023-07-13T03:12:01;10.48;;;1.65;;
41631;SDS011;37452;51.938;4.624;2023-07-13T03:14:27;14.88;;;2.25;;
41631;SDS011;37452;51.938;4.624;2023-07-13T03:16:52;10.75;;;2.05;;
41631;SDS011;37452;51.938;4.624;2023-07-13T03:19:18;11.30;;;1.83;;
41631;SDS011;37452;51.938;4.624;2023-07-13T03:21:44;10.55;;;2.10;;
41631;SDS011;37452;51.938;4.624;2023-07-13T03:24:10;16.63;;;2.28;;
41631;SDS011;37452;51.938;4.624;2023-07-13T03:26:36;5.32;;;1.60;;
41631;SDS011;37452;51.938;4.624;2023-07-13T03:29:02;11.40;;;2.03;;
41631;SDS011;37452;51.938;4.624;2023-07-13T03:31:29;14.02;;;2.72;;
41631;SDS011;37452;51.938;4.624;2023-07-13T03:34:00;10.65;;;2.13;;
41631;SDS011;37452;51.938;4.624;2023-07-13T03:36:26;12.15;;;2.40;;
41631;SDS011;37452;51.938;4.624;2023-07-13T03:38:54;13.13;;;2.47;;
41631;SDS011;37452;51.938;4.624;2023-07-13T03:41:24;10.18;;;2.10;;
41631;SDS011;37452;51.938;4.624;2023-07-13T03:43:50;10.88;;;2.15;;
41631;SDS011;37452;51.938;4.624;2023-07-13T03:46:16;13.88;;;2.65;;
41631;SDS011;37452;51.938;4.624;2023-07-13T03:48:43;15.43;;;2.72;;
41631;SDS011;37452;51.938;4.624;2023-07-13T03:51:09;13.52;;;2.50;;
41631;SDS011;37452;51.938;4.624;2023-07-13T03:53:39;16.85;;;2.80;;
41631;SDS011;37452;51.938;4.624;2023-07-13T03:56:06;9.95;;;2.45;;
41631;SDS011;37452;51.938;4.624;2023-07-13T03:58:32;10.55;;;3.08;;
41631;SDS011;37452;51.938;4.624;2023-07-13T04:00:59;11.90;;;2.55;;
41631;SDS011;37452;51.938;4.624;2023-07-13T04:03:26;14.18;;;2.55;;
41631;SDS011;37452;51.938;4.624;2023-07-13T04:05:53;9.35;;;2.42;;
41631;SDS011;37452;51.938;4.624;2023-07-13T04:08:32;17.30;;;3.00;;
41631;SDS011;37452;51.938;4.624;2023-07-13T04:10:59;9.18;;;2.40;;
41631;SDS011;37452;51.938;4.624;2023-07-13T04:13:25;13.43;;;2.95;;
41631;SDS011;37452;51.938;4.624;2023-07-13T04:15:51;9.70;;;2.45;;
41631;SDS011;37452;51.938;4.624;2023-07-13T04:18:17;15.80;;;2.90;;
41631;SDS011;37452;51.938;4.624;2023-07-13T04:20:44;13.80;;;3.33;;
41631;SDS011;37452;51.938;4.624;2023-07-13T04:23:11;11.18;;;3.00;;
41631;SDS011;37452;51.938;4.624;2023-07-13T04:25:36;11.77;;;3.17;;
41631;SDS011;37452;51.938;4.624;2023-07-13T04:28:02;13.05;;;3.13;;
41631;SDS011;37452;51.938;4.624;2023-07-13T04:30:29;15.27;;;4.00;;
41631;SDS011;37452;51.938;4.624;2023-07-13T04:32:54;10.23;;;2.58;;
41631;SDS011;37452;51.938;4.624;2023-07-13T04:35:20;15.02;;;2.95;;
41631;SDS011;37452;51.938;4.624;2023-07-13T04:37:46;8.40;;;2.28;;
41631;SDS011;37452;51.938;4.624;2023-07-13T04:40:13;11.30;;;2.55;;
41631;SDS011;37452;51.938;4.624;2023-07-13T04:42:39;12.57;;;3.20;;
41631;SDS011;37452;51.938;4.624;2023-07-13T04:45:05;11.35;;;3.13;;
41631;SDS011;37452;51.938;4.624;2023-07-13T04:47:31;9.93;;;3.13;;
41631;SDS011;37452;51.938;4.624;2023-07-13T04:49:57;16.20;;;3.25;;
41631;SDS011;37452;51.938;4.624;2023-07-13T04:52:23;17.67;;;3.80;;
41631;SDS011;37452;51.938;4.624;2023-07-13T04:54:48;15.80;;;3.40;;
41631;SDS011;37452;51.938;4.624;2023-07-13T04:57:14;13.45;;;3.40;;
41631;SDS011;37452;51.938;4.624;2023-07-13T04:59:40;15.32;;;3.38;;
41631;SDS011;37452;51.938;4.624;2023-07-13T05:02:06;9.20;;;3.35;;
41631;SDS011;37452;51.938;4.624;2023-07-13T05:04:31;8.93;;;2.83;;
41631;SDS011;37452;51.938;4.624;2023-07-13T05:06:57;12.30;;;2.97;;
41631;SDS011;37452;51.938;4.624;2023-07-13T05:09:22;12.65;;;3.30;;
41631;SDS011;37452;51.938;4.624;2023-07-13T05:11:48;7.63;;;2.67;;
41631;SDS011;37452;51.938;4.624;2023-07-13T05:14:13;13.10;;;2.72;;
41631;SDS011;37452;51.938;4.624;2023-07-13T05:16:40;12.38;;;3.80;;
41631;SDS011;37452;51.938;4.624;2023-07-13T05:19:05;22.95;;;3.72;;
41631;SDS011;37452;51.938;4.624;2023-07-13T05:21:31;16.33;;;3.10;;
41631;SDS011;37452;51.938;4.624;2023-07-13T05:23:56;13.77;;;2.72;;
41631;SDS011;37452;51.938;4.624;2023-07-13T05:26:21;11.55;;;2.30;;
41631;SDS011;37452;51.938;4.624;2023-07-13T05:28:47;11.98;;;2.13;;
41631;SDS011;37452;51.938;4.624;2023-07-13T05:31:12;12.50;;;2.95;;
41631;SDS011;37452;51.938;4.624;2023-07-13T05:33:38;11.80;;;2.88;;
41631;SDS011;37452;51.938;4.624;2023-07-13T05:36:04;11.95;;;2.70;;
41631;SDS011;37452;51.938;4.624;2023-07-13T05:38:30;10.85;;;2.95;;
41631;SDS011;37452;51.938;4.624;2023-07-13T05:40:56;14.18;;;3.30;;
41631;SDS011;37452;51.938;4.624;2023-07-13T05:43:22;15.05;;;3.58;;
41631;SDS011;37452;51.938;4.624;2023-07-13T05:45:48;11.40;;;3.25;;
41631;SDS011;37452;51.938;4.624;2023-07-13T05:48:14;12.82;;;2.85;;
41631;SDS011;37452;51.938;4.624;2023-07-13T05:50:40;12.02;;;2.85;;
41631;SDS011;37452;51.938;4.624;2023-07-13T05:53:06;14.55;;;2.97;;
41631;SDS011;37452;51.938;4.624;2023-07-13T05:55:31;12.88;;;3.30;;
41631;SDS011;37452;51.938;4.624;2023-07-13T05:57:57;14.75;;;3.40;;
41631;SDS011;37452;51.938;4.624;2023-07-13T06:00:24;9.38;;;3.08;;
41631;SDS011;37452;51.938;4.624;2023-07-13T06:02:50;11.10;;;3.05;;
41631;SDS011;37452;51.938;4.624;2023-07-13T06:05:15;10.23;;;2.67;;
41631;SDS011;37452;51.938;4.624;2023-07-13T06:07:41;10.80;;;2.92;;
41631;SDS011;37452;51.938;4.624;2023-07-13T06:10:07;9.43;;;2.78;;
41631;SDS011;37452;51.938;4.624;2023-07-13T06:12:32;12.27;;;3.00;;
41631;SDS011;37452;51.938;4.624;2023-07-13T06:14:58;14.48;;;2.67;;
41631;SDS011;37452;51.938;4.624;2023-07-13T06:17:23;14.65;;;4.20;;
41631;SDS011;37452;51.938;4.624;2023-07-13T06:19:49;13.50;;;3.70;;
41631;SDS011;37452;51.938;4.624;2023-07-13T06:22:14;10.77;;;3.88;;
41631;SDS011;37452;51.938;4.624;2023-07-13T06:24:39;11.38;;;3.83;;
41631;SDS011;37452;51.938;4.624;2023-07-13T06:27:05;10.25;;;3.42;;
41631;SDS011;37452;51.938;4.624;2023-07-13T06:29:30;12.25;;;4.30;;
41631;SDS011;37452;51.938;4.624;2023-07-13T06:31:56;6.78;;;2.78;;
41631;SDS011;37452;51.938;4.624;2023-07-13T06:34:22;6.65;;;2.53;;
41631;SDS011;37452;51.938;4.624;2023-07-13T06:36:47;5.65;;;1.67;;
41631;SDS011;37452;51.938;4.624;2023-07-13T06:39:13;5.32;;;1.40;;
41631;SDS011;37452;51.938;4.624;2023-07-13T06:41:39;4.43;;;1.55;;
41631;SDS011;37452;51.938;4.624;2023-07-13T06:44:04;5.78;;;2.10;;
41631;SDS011;37452;51.938;4.624;2023-07-13T06:46:31;5.45;;;2.03;;
41631;SDS011;37452;51.938;4.624;2023-07-13T06:48:57;6.70;;;1.95;;
41631;SDS011;37452;51.938;4.624;2023-07-13T06:51:22;4.47;;;1.90;;
41631;SDS011;37452;51.938;4.624;2023-07-13T06:53:48;6.03;;;1.80;;
41631;SDS011;37452;51.938;4.624;2023-07-13T06:56:15;8.75;;;2.10;;
41631;SDS011;37452;51.938;4.624;2023-07-13T06:58:40;6.25;;;2.22;;
41631;SDS011;37452;51.938;4.624;2023-07-13T07:01:06;5.78;;;2.50;;
41631;SDS011;37452;51.938;4.624;2023-07-13T07:03:31;7.85;;;2.25;;
41631;SDS011;37452;51.938;4.624;2023-07-13T07:06:12;9.98;;;2.75;;
41631;SDS011;37452;51.938;4.624;2023-07-13T07:08:40;6.72;;;2.67;;
41631;SDS011;37452;51.938;4.624;2023-07-13T07:11:05;5.50;;;2.75;;
41631;SDS011;37452;51.938;4.624;2023-07-13T07:13:33;11.50;;;3.35;;
41631;SDS011;37452;51.938;4.624;2023-07-13T07:15:58;12.60;;;2.60;;
41631;SDS011;37452;51.938;4.624;2023-07-13T07:18:25;8.73;;;2.90;;
41631;SDS011;37452;51.938;4.624;2023-07-13T07:20:50;8.13;;;2.92;;
41631;SDS011;37452;51.938;4.624;2023-07-13T07:23:16;9.68;;;3.67;;
41631;SDS011;37452;51.938;4.624;2023-07-13T07:25:42;11.73;;;3.85;;
41631;SDS011;37452;51.938;4.624;2023-07-13T07:28:08;10.68;;;2.83;;
41631;SDS011;37452;51.938;4.624;2023-07-13T07:30:34;10.52;;;2.92;;
41631;SDS011;37452;51.938;4.624;2023-07-13T07:33:00;9.18;;;2.92;;
41631;SDS011;37452;51.938;4.624;2023-07-13T07:35:26;6.35;;;2.38;;
41631;SDS011;37452;51.938;4.624;2023-07-13T07:37:51;2.88;;;0.82;;
41631;SDS011;37452;51.938;4.624;2023-07-13T07:40:17;4.38;;;1.17;;
41631;SDS011;37452;51.938;4.624;2023-07-13T07:42:43;2.40;;;1.10;;
41631;SDS011;37452;51.938;4.624;2023-07-13T07:45:09;4.20;;;1.35;;
41631;SDS011;37452;51.938;4.624;2023-07-13T07:47:36;3.47;;;1.15;;
41631;SDS011;37452;51.938;4.624;2023-07-13T07:50:02;2.65;;;1.23;;
41631;SDS011;37452;51.938;4.624;2023-07-13T07:52:27;5.45;;;1.52;;
41631;SDS011;37452;51.938;4.624;2023-07-13T07:54:53;3.75;;;1.50;;
41631;SDS011;37452;51.938;4.624;2023-07-13T07:57:18;7.05;;;1.92;;
41631;SDS011;37452;51.938;4.624;2023-07-13T07:59:44;5.40;;;1.83;;
41631;SDS011;37452;51.938;4.624;2023-07-13T08:02:09;7.40;;;1.88;;
41631;SDS011;37452;51.938;4.624;2023-07-13T08:04:36;4.78;;;2.13;;
41631;SDS011;37452;51.938;4.624;2023-07-13T08:07:02;6.25;;;1.92;;
41631;SDS011;37452;51.938;4.624;2023-07-13T08:09:28;5.30;;;2.10;;
41631;SDS011;37452;51.938;4.624;2023-07-13T08:11:54;6.90;;;2.50;;
41631;SDS011;37452;51.938;4.624;2023-07-13T08:14:19;5.65;;;2.40;;
41631;SDS011;37452;51.938;4.624;2023-07-13T08:16:45;6.57;;;2.28;;
41631;SDS011;37452;51.938;4.624;2023-07-13T08:19:10;6.25;;;2.00;;
41631;SDS011;37452;51.938;4.624;2023-07-13T08:21:36;4.25;;;1.48;;
41631;SDS011;37452;51.938;4.624;2023-07-13T08:24:02;8.15;;;1.70;;
41631;SDS011;37452;51.938;4.624;2023-07-13T08:26:27;6.53;;;1.73;;
41631;SDS011;37452;51.938;4.624;2023-07-13T08:28:53;4.57;;;1.60;;
41631;SDS011;37452;51.938;4.624;2023-07-13T08:31:18;2.85;;;1.77;;
41631;SDS011;37452;51.938;4.624;2023-07-13T08:33:43;6.55;;;2.20;;
41631;SDS011;37452;51.938;4.624;2023-07-13T08:36:09;4.20;;;1.58;;
41631;SDS011;37452;51.938;4.624;2023-07-13T08:38:34;5.47;;;1.98;;
41631;SDS011;37452;51.938;4.624;2023-07-13T08:41:00;4.70;;;2.00;;
41631;SDS011;37452;51.938;4.624;2023-07-13T08:43:35;7.75;;;2.13;;
41631;SDS011;37452;51.938;4.624;2023-07-13T08:51:40;7.07;;;1.65;;
41631;SDS011;37452;51.938;4.624;2023-07-13T08:54:15;4.25;;;1.40;;
41631;SDS011;37452;51.938;4.624;2023-07-13T08:56:49;5.63;;;1.52;;
41631;SDS011;37452;51.938;4.624;2023-07-13T08:59:19;4.03;;;1.83;;
41631;SDS011;37452;51.938;4.624;2023-07-13T09:04:36;4.45;;;1.80;;
41631;SDS011;37452;51.938;4.624;2023-07-13T09:07:11;8.13;;;1.83;;
41631;SDS011;37452;51.938;4.624;2023-07-13T09:14:59;5.15;;;2.00;;
41631;SDS011;37452;51.938;4.624;2023-07-13T09:17:32;3.63;;;1.90;;
41631;SDS011;37452;51.938;4.624;2023-07-13T09:20:25;5.45;;;1.60;;
41631;SDS011;37452;51.938;4.624;2023-07-13T09:22:56;4.93;;;1.60;;
41631;SDS011;37452;51.938;4.624;2023-07-13T09:25:28;7.13;;;1.33;;
41631;SDS011;37452;51.938;4.624;2023-07-13T09:27:57;6.65;;;1.75;;
41631;SDS011;37452;51.938;4.624;2023-07-13T09:33:09;4.78;;;1.77;;
41631;SDS011;37452;51.938;4.624;2023-07-13T09:35:35;6.10;;;2.20;;
41631;SDS011;37452;51.938;4.624;2023-07-13T09:38:17;5.25;;;2.00;;
41631;SDS011;37452;51.938;4.624;2023-07-13T09:43:15;3.28;;;1.67;;
41631;SDS011;37452;51.938;4.624;2023-07-13T09:45:45;6.38;;;2.35;;
41631;SDS011;37452;51.938;4.624;2023-07-13T09:48:13;4.75;;;1.85;;
41631;SDS011;37452;51.938;4.624;2023-07-13T09:50:39;6.38;;;2.28;;
41631;SDS011;37452;51.938;4.624;2023-07-13T09:53:11;6.85;;;2.10;;
41631;SDS011;37452;51.938;4.624;2023-07-13T09:55:38;5.70;;;2.20;;
41631;SDS011;37452;51.938;4.624;2023-07-13T09:58:21;8.70;;;2.38;;
41631;SDS011;37452;51.938;4.624;2023-07-13T10:03:30;7.82;;;2.90;;
41631;SDS011;37452;51.938;4.624;2023-07-13T10:06:13;4.25;;;2.30;;
41631;SDS011;37452;51.938;4.624;2023-07-13T10:08:40;7.50;;;2.50;;
41631;SDS011;37452;51.938;4.624;2023-07-13T10:11:18;6.18;;;2.80;;
41631;SDS011;37452;51.938;4.624;2023-07-13T10:13:47;5.35;;;2.53;;
41631;SDS011;37452;51.938;4.624;2023-07-13T10:16:21;5.88;;;1.95;;
41631;SDS011;37452;51.938;4.624;2023-07-13T10:18:50;5.80;;;2.22;;
41631;SDS011;37452;51.938;4.624;2023-07-13T10:21:21;7.68;;;1.90;;
41631;SDS011;37452;51.938;4.624;2023-07-13T10:23:52;7.68;;;2.15;;
41631;SDS011;37452;51.938;4.624;2023-07-13T10:26:25;5.07;;;1.70;;
41631;SDS011;37452;51.938;4.624;2023-07-13T10:28:56;5.97;;;2.00;;
41631;SDS011;37452;51.938;4.624;2023-07-13T10:31:26;5.13;;;2.10;;
41631;SDS011;37452;51.938;4.624;2023-07-13T10:33:52;5.05;;;2.55;;
41631;SDS011;37452;51.938;4.624;2023-07-13T10:36:29;3.78;;;1.98;;
41631;SDS011;37452;51.938;4.624;2023-07-13T10:39:00;4.18;;;2.03;;
41631;SDS011;37452;51.938;4.624;2023-07-13T10:41:28;4.78;;;2.05;;
41631;SDS011;37452;51.938;4.624;2023-07-13T10:43:58;4.78;;;1.65;;
41631;SDS011;37452;51.938;4.624;2023-07-13T10:46:25;8.45;;;2.00;;
41631;SDS011;37452;51.938;4.624;2023-07-13T10:48:55;8.98;;;1.98;;
41631;SDS011;37452;51.938;4.624;2023-07-13T10:51:24;6.43;;;1.85;;
41631;SDS011;37452;51.938;4.624;2023-07-13T10:56:52;3.45;;;1.60;;
41631;SDS011;37452;51.938;4.624;2023-07-13T10:59:39;3.85;;;1.70;;
41631;SDS011;37452;51.938;4.624;2023-07-13T11:02:20;4.72;;;1.98;;
41631;SDS011;37452;51.938;4.624;2023-07-13T11:04:49;6.18;;;2.00;;
41631;SDS011;37452;51.938;4.624;2023-07-13T11:07:28;5.32;;;1.80;;
41631;SDS011;37452;51.938;4.624;2023-07-13T11:09:58;6.85;;;1.80;;
41631;SDS011;37452;51.938;4.624;2023-07-13T11:17:29;3.92;;;1.50;;
41631;SDS011;37452;51.938;4.624;2023-07-13T11:25:26;2.90;;;1.40;;
41631;SDS011;37452;51.938;4.624;2023-07-13T11:30:39;6.55;;;1.80;;
41631;SDS011;37452;51.938;4.624;2023-07-13T11:36:13;4.95;;;1.70;;
41631;SDS011;37452;51.938;4.624;2023-07-13T11:38:40;4.25;;;1.50;;
41631;SDS011;37452;51.938;4.624;2023-07-13T11:41:28;2.60;;;1.33;;
41631;SDS011;37452;51.938;4.624;2023-07-13T11:46:43;4.28;;;1.58;;
41631;SDS011;37452;51.938;4.624;2023-07-13T11:49:13;5.07;;;1.70;;
41631;SDS011;37452;51.938;4.624;2023-07-13T11:51:41;6.25;;;1.63;;
41631;SDS011;37452;51.938;4.624;2023-07-13T11:54:15;5.65;;;1.33;;
41631;SDS011;37452;51.938;4.624;2023-07-13T11:56:48;11.05;;;2.10;;
41631;SDS011;37452;51.938;4.624;2023-07-13T11:59:14;2.90;;;1.40;;
41631;SDS011;37452;51.938;4.624;2023-07-13T12:01:42;3.63;;;1.50;;
41631;SDS011;37452;51.938;4.624;2023-07-13T12:04:18;5.28;;;1.58;;
41631;SDS011;37452;51.938;4.624;2023-07-13T12:06:57;2.78;;;1.27;;
41631;SDS011;37452;51.938;4.624;2023-07-13T12:09:39;5.60;;;1.80;;
41631;SDS011;37452;51.938;4.624;2023-07-13T12:12:09;3.97;;;1.60;;
41631;SDS011;37452;51.938;4.624;2023-07-13T12:14:36;4.93;;;1.45;;
41631;SDS011;37452;51.938;4.624;2023-07-13T12:17:04;3.55;;;1.40;;
41631;SDS011;37452;51.938;4.624;2023-07-13T12:19:37;6.28;;;1.40;;
41631;SDS011;37452;51.938;4.624;2023-07-13T12:22:02;6.72;;;1.40;;
41631;SDS011;37452;51.938;4.624;2023-07-13T12:24:28;5.15;;;1.40;;
41631;SDS011;37452;51.938;4.624;2023-07-13T12:26:58;3.85;;;1.38;;
41631;SDS011;37452;51.938;4.624;2023-07-13T12:29:26;4.38;;;1.15;;
41631;SDS011;37452;51.938;4.624;2023-07-13T12:31:51;4.65;;;1.20;;
41631;SDS011;37452;51.938;4.624;2023-07-13T12:34:21;6.20;;;1.27;;
41631;SDS011;37452;51.938;4.624;2023-07-13T12:36:51;5.07;;;1.13;;
41631;SDS011;37452;51.938;4.624;2023-07-13T12:39:19;2.75;;;1.17;;
41631;SDS011;37452;51.938;4.624;2023-07-13T12:41:45;3.17;;;1.27;;
41631;SDS011;37452;51.938;4.624;2023-07-13T12:44:11;3.47;;;1.20;;
41631;SDS011;37452;51.938;4.624;2023-07-13T12:46:39;6.97;;;1.42;;
41631;SDS011;37452;51.938;4.624;2023-07-13T12:49:05;5.05;;;1.58;;
41631;SDS011;37452;51.938;4.624;2023-07-13T12:51:32;2.20;;;1.17;;
41631;SDS011;37452;51.938;4.624;2023-07-13T12:54:05;3.70;;;1.30;;
41631;SDS011;37452;51.938;4.624;2023-07-13T12:56:51;5.25;;;1.30;;
41631;SDS011;37452;51.938;4.624;2023-07-13T12:59:20;3.05;;;1.23;;
41631;SDS011;37452;51.938;4.624;2023-07-13T13:01:48;2.30;;;0.93;;
41631;SDS011;37452;51.938;4.624;2023-07-13T13:04:15;1.92;;;1.10;;
41631;SDS011;37452;51.938;4.624;2023-07-13T13:06:41;2.90;;;1.00;;
41631;SDS011;37452;51.938;4.624;2023-07-13T13:09:12;4.97;;;1.27;;
41631;SDS011;37452;51.938;4.624;2023-07-13T13:11:39;3.60;;;1.10;;
41631;SDS011;37452;51.938;4.624;2023-07-13T13:14:08;4.07;;;1.35;;
41631;SDS011;37452;51.938;4.624;2023-07-13T13:19:19;5.03;;;1.13;;
41631;SDS011;37452;51.938;4.624;2023-07-13T13:21:47;2.78;;;1.02;;
41631;SDS011;37452;51.938;4.624;2023-07-13T13:24:17;2.65;;;1.05;;
41631;SDS011;37452;51.938;4.624;2023-07-13T13:26:45;1.52;;;0.80;;
41631;SDS011;37452;51.938;4.624;2023-07-13T13:29:19;6.45;;;1.13;;
41631;SDS011;37452;51.938;4.624;2023-07-13T13:31:51;4.70;;;1.20;;
41631;SDS011;37452;51.938;4.624;2023-07-13T13:34:18;5.22;;;0.98;;
41631;SDS011;37452;51.938;4.624;2023-07-13T13:36:44;2.25;;;0.80;;
41631;SDS011;37452;51.938;4.624;2023-07-13T13:39:17;1.67;;;0.80;;
41631;SDS011;37452;51.938;4.624;2023-07-13T13:41:43;1.77;;;0.80;;
41631;SDS011;37452;51.938;4.624;2023-07-13T13:44:09;2.67;;;0.80;;
41631;SDS011;37452;51.938;4.624;2023-07-13T13:46:35;2.00;;;0.90;;
41631;SDS011;37452;51.938;4.624;2023-07-13T13:49:01;5.70;;;1.00;;
41631;SDS011;37452;51.938;4.624;2023-07-13T13:51:27;2.15;;;1.00;;
41631;SDS011;37452;51.938;4.624;2023-07-13T13:53:54;4.10;;;1.05;;
41631;SDS011;37452;51.938;4.624;2023-07-13T13:56:19;2.65;;;0.73;;
41631;SDS011;37452;51.938;4.624;2023-07-13T13:58:45;2.10;;;0.80;;
41631;SDS011;37452;51.938;4.624;2023-07-13T14:01:19;2.35;;;0.88;;
41631;SDS011;37452;51.938;4.624;2023-07-13T14:03:46;1.83;;;1.00;;
41631;SDS011;37452;51.938;4.624;2023-07-13T14:06:14;4.22;;;0.90;;
41631;SDS011;37452;51.938;4.624;2023-07-13T14:08:40;2.80;;;1.10;;
41631;SDS011;37452;51.938;4.624;2023-07-13T14:11:07;2.60;;;0.80;;
41631;SDS011;37452;51.938;4.624;2023-07-13T14:13:39;3.45;;;1.00;;
41631;SDS011;37452;51.938;4.624;2023-07-13T14:16:16;3.03;;;1.25;;
41631;SDS011;37452;51.938;4.624;2023-07-13T14:18:44;2.75;;;1.02;;
41631;SDS011;37452;51.938;4.624;2023-07-13T14:23:40;3.30;;;0.95;;
41631;SDS011;37452;51.938;4.624;2023-07-13T14:26:09;1.95;;;0.98;;
41631;SDS011;37452;51.938;4.624;2023-07-13T14:28:37;1.85;;;0.88;;
41631;SDS011;37452;51.938;4.624;2023-07-13T14:31:06;2.42;;;0.82;;
41631;SDS011;37452;51.938;4.624;2023-07-13T14:33:31;2.55;;;1.00;;
41631;SDS011;37452;51.938;4.624;2023-07-13T14:35:57;4.00;;;0.98;;
41631;SDS011;37452;51.938;4.624;2023-07-13T14:38:22;3.85;;;1.25;;
41631;SDS011;37452;51.938;4.624;2023-07-13T14:40:47;2.95;;;0.77;;
41631;SDS011;37452;51.938;4.624;2023-07-13T14:43:14;3.85;;;1.02;;
41631;SDS011;37452;51.938;4.624;2023-07-13T14:45:41;3.47;;;0.95;;
41631;SDS011;37452;51.938;4.624;2023-07-13T14:48:15;2.38;;;1.20;;
41631;SDS011;37452;51.938;4.624;2023-07-13T14:50:44;4.22;;;1.05;;
41631;SDS011;37452;51.938;4.624;2023-07-13T14:53:11;2.83;;;1.00;;
41631;SDS011;37452;51.938;4.624;2023-07-13T14:55:37;4.20;;;0.90;;
41631;SDS011;37452;51.938;4.624;2023-07-13T14:58:03;4.18;;;1.20;;
41631;SDS011;37452;51.938;4.624;2023-07-13T15:00:28;3.30;;;1.00;;
41631;SDS011;37452;51.938;4.624;2023-07-13T15:02:55;4.43;;;1.08;;
41631;SDS011;37452;51.938;4.624;2023-07-13T15:05:27;2.58;;;0.93;;
41631;SDS011;37452;51.938;4.624;2023-07-13T15:07:56;1.88;;;0.93;;
41631;SDS011;37452;51.938;4.624;2023-07-13T15:10:28;3.08;;;1.08;;
41631;SDS011;37452;51.938;4.624;2023-07-13T15:12:59;2.88;;;0.80;;
41631;SDS011;37452;51.938;4.624;2023-07-13T15:15:29;3.20;;;1.05;;
41631;SDS011;37452;51.938;4.624;2023-07-13T15:17:58;2.40;;;0.80;;
41631;SDS011;37452;51.938;4.624;2023-07-13T15:20:26;2.40;;;0.98;;
41631;SDS011;37452;51.938;4.624;2023-07-13T15:22:52;1.40;;;0.80;;
41631;SDS011;37452;51.938;4.624;2023-07-13T15:25:19;2.58;;;0.90;;
41631;SDS011;37452;51.938;4.624;2023-07-13T15:27:47;3.53;;;1.08;;
41631;SDS011;37452;51.938;4.624;2023-07-13T15:30:12;4.63;;;1.08;;
41631;SDS011;37452;51.938;4.624;2023-07-13T15:32:39;2.92;;;1.13;;
41631;SDS011;37452;51.938;4.624;2023-07-13T15:35:12;2.45;;;1.13;;
41631;SDS011;37452;51.938;4.624;2023-07-13T15:37:43;3.45;;;1.23;;